Time;durP1;ratioP1;P1;durP2;ratioP2;P2;SDS_P1;SDS_P2;PMS_P1;PMS_P2;Temp;Humidity;BMP_temperature;BMP_pressure;BME280_temperature;BME280_humidity;BME280_pressure;Samples;Min_cycle;Max_cycle;Signal;HPM_P1;HPM_P2
2023/09/15 00:00:25;;;;;;;3.22;1.38;;;;;;;14.85;71.69;101686.38;2098123;28;20029;-72
2023/09/15 00:01:28;;;;;;;2.50;1.20;;;;;;;14.83;71.73;101681.22;2090565;28;20065;-72
2023/09/15 00:02:30;;;;;;;2.47;1.25;;;;;;;14.82;71.74;101676.91;2090233;28;20029;-72
2023/09/15 00:03:32;;;;;;;4.90;1.15;;;;;;;14.82;71.77;101686.94;2089738;28;20045;-72
2023/09/15 00:04:33;;;;;;;3.33;1.30;;;;;;;14.81;71.63;101680.69;2089602;28;20177;-72
2023/09/15 00:05:37;;;;;;;4.30;1.33;;;;;;;14.80;71.32;101684.50;2081244;28;20041;-72
2023/09/15 00:06:46;;;;;;;4.28;1.02;;;;;;;14.80;71.39;101678.28;2082627;28;20085;-72
2023/09/15 00:07:48;;;;;;;4.82;1.40;;;;;;;14.80;71.34;101686.41;2092121;28;20085;-71
2023/09/15 00:08:50;;;;;;;3.15;1.70;;;;;;;14.77;71.76;101676.13;2089653;28;20152;-72
2023/09/15 00:09:52;;;;;;;3.42;1.30;;;;;;;14.80;71.42;101691.81;2081604;28;20030;-72
2023/09/15 00:10:54;;;;;;;2.28;1.10;;;;;;;14.79;71.75;101684.78;2081636;28;20041;-72
2023/09/15 00:12:01;;;;;;;2.35;1.23;;;;;;;14.78;71.33;101683.16;2075357;28;20041;-71
2023/09/15 00:13:03;;;;;;;2.53;1.20;;;;;;;14.78;71.78;101675.03;2090268;28;20919;-71
2023/09/15 00:14:11;;;;;;;2.95;1.20;;;;;;;14.77;71.33;101685.06;2090144;28;20032;-72
2023/09/15 00:15:21;;;;;;;2.42;1.20;;;;;;;14.77;71.64;101678.84;2100334;28;20033;-71
2023/09/15 00:16:24;;;;;;;3.90;1.30;;;;;;;14.77;71.63;101686.97;2097997;28;20033;-72
2023/09/15 00:17:25;;;;;;;2.17;1.13;;;;;;;14.75;71.87;101681.00;2098389;28;20029;-71
2023/09/15 00:18:30;;;;;;;1.38;1.02;;;;;;;14.76;71.35;101679.94;2097853;28;20148;-72
2023/09/15 00:19:34;;;;;;;3.20;1.45;;;;;;;14.75;71.43;101691.84;2081653;28;20867;-71
2023/09/15 00:20:40;;;;;;;2.53;1.33;;;;;;;14.74;71.58;101691.03;2098935;28;20080;-71
2023/09/15 00:21:47;;;;;;;2.05;1.10;;;;;;;14.73;71.57;101685.91;2106087;28;20060;-71
2023/09/15 00:22:51;;;;;;;3.25;1.15;;;;;;;14.73;71.74;101691.31;2104592;28;20059;-71
2023/09/15 00:23:53;;;;;;;3.22;1.10;;;;;;;14.72;71.77;101693.22;2099902;28;20029;-71
2023/09/15 00:24:55;;;;;;;5.75;1.30;;;;;;;14.73;71.80;101691.31;2107956;28;20037;-72
2023/09/15 00:25:59;;;;;;;2.22;1.15;;;;;;;14.71;71.70;101696.19;2107974;28;20110;-71
2023/09/15 00:27:06;;;;;;;5.90;1.08;;;;;;;14.71;71.61;101696.19;2108873;28;20209;-71
2023/09/15 00:28:13;;;;;;;2.90;1.15;;;;;;;14.70;71.65;101689.16;2115582;28;20902;-71
2023/09/15 00:29:14;;;;;;;2.08;0.95;;;;;;;14.69;71.83;101698.34;2099863;28;20028;-72
2023/09/15 00:30:22;;;;;;;2.50;1.10;;;;;;;14.69;71.93;101698.34;2099268;28;20074;-72
2023/09/15 00:31:44;;;;;;;2.22;1.20;;;;;;;14.68;72.06;101692.13;2096806;28;20083;-72
2023/09/15 00:32:48;;;;;;;2.25;1.33;;;;;;;14.68;71.65;101688.63;2090995;28;20087;-71
2023/09/15 00:34:24;;;;;;;3.05;1.02;;;;;;;14.67;71.95;101698.66;2083088;28;20878;-72
2023/09/15 00:35:30;;;;;;;4.18;2.53;;;;;;;14.67;71.76;101690.53;2101382;28;20029;-72
2023/09/15 00:36:35;;;;;;;2.78;1.27;;;;;;;14.66;71.69;101698.91;2098815;28;20041;-72
2023/09/15 00:37:37;;;;;;;2.25;1.30;;;;;;;14.64;71.68;101690.28;2091724;28;20199;-72
2023/09/15 00:38:40;;;;;;;3.17;1.20;;;;;;;14.64;71.79;101690.28;2083009;28;20036;-72
2023/09/15 00:39:42;;;;;;;3.83;1.50;;;;;;;14.63;71.63;101688.63;2074809;28;20717;-72
2023/09/15 00:40:46;;;;;;;2.80;1.02;;;;;;;14.62;72.10;101687.03;2091974;28;20035;-72
2023/09/15 00:41:48;;;;;;;3.67;1.63;;;;;;;14.61;72.13;101688.94;2091155;28;20788;-72
2023/09/15 00:42:52;;;;;;;3.50;1.33;;;;;;;14.60;71.98;101690.84;2083109;28;20076;-72
2023/09/15 00:44:18;;;;;;;1.90;1.02;;;;;;;14.59;72.01;101689.19;2083312;28;20033;-72
2023/09/15 00:45:22;;;;;;;1.90;0.90;;;;;;;14.59;72.16;101689.19;2093798;28;20909;-72
2023/09/15 00:46:30;;;;;;;2.83;1.10;;;;;;;14.59;72.37;101697.31;2099933;28;20058;-72
2023/09/15 00:47:38;;;;;;;3.67;1.25;;;;;;;14.58;72.21;101698.41;2100549;28;20037;-72
2023/09/15 00:48:45;;;;;;;1.88;1.02;;;;;;;14.57;71.92;101685.97;2100508;28;20029;-72
2023/09/15 00:49:52;;;;;;;6.88;1.33;;;;;;;14.56;71.89;101689.78;2107375;28;20068;-72
2023/09/15 00:50:56;;;;;;;3.17;1.13;;;;;;;14.56;72.15;101699.78;2098956;28;20787;-71
2023/09/15 00:51:59;;;;;;;2.33;0.90;;;;;;;14.56;72.31;101700.59;2082968;28;20030;-72
2023/09/15 00:53:09;;;;;;;3.92;1.05;;;;;;;14.55;72.20;101704.38;2083811;28;20137;-71
2023/09/15 00:54:12;;;;;;;2.70;1.00;;;;;;;14.54;72.26;101708.19;2101202;28;20135;-71
2023/09/15 00:55:24;;;;;;;1.50;1.02;;;;;;;14.54;72.19;101701.97;2115364;28;20105;-72
2023/09/15 00:56:27;;;;;;;5.13;1.45;;;;;;;14.53;72.38;101705.75;2098798;28;20021;-72
2023/09/15 00:57:37;;;;;;;2.58;1.20;;;;;;;14.51;72.48;101699.81;2075495;28;20081;-72
2023/09/15 00:58:40;;;;;;;2.60;1.23;;;;;;;14.49;71.99;101705.44;2077491;28;20192;-71
2023/09/15 00:59:43;;;;;;;2.47;1.30;;;;;;;14.48;72.38;101709.25;2083151;28;20037;-72
2023/09/15 01:00:44;;;;;;;2.50;1.05;;;;;;;14.46;72.34;101706.00;2091169;28;20173;-72
2023/09/15 01:02:10;;;;;;;2.72;1.10;;;;;;;14.45;72.45;101709.81;2091503;28;20160;-72
2023/09/15 01:03:36;;;;;;;2.00;1.00;;;;;;;14.44;72.25;101707.38;2086950;28;20041;-72
2023/09/15 01:04:43;;;;;;;2.33;1.38;;;;;;;14.45;72.26;101709.81;2082549;28;20026;-72
2023/09/15 01:05:46;;;;;;;1.35;0.90;;;;;;;14.44;72.41;101713.59;2091504;28;20041;-72
2023/09/15 01:06:50;;;;;;;2.75;1.15;;;;;;;14.45;72.59;101715.22;2090737;28;20037;-72
2023/09/15 01:07:53;;;;;;;1.92;0.90;;;;;;;14.43;72.51;101703.84;2100268;28;20906;-72
2023/09/15 01:09:14;;;;;;;3.15;1.20;;;;;;;14.44;72.74;101710.91;2107673;28;20037;-72
2023/09/15 01:10:16;;;;;;;3.45;1.30;;;;;;;14.43;72.65;101703.03;2085300;28;20899;-75
2023/09/15 01:11:18;;;;;;;2.78;1.10;;;;;;;14.43;72.49;101706.56;2091600;28;20025;-72
2023/09/15 01:12:20;;;;;;;4.55;1.10;;;;;;;14.42;72.61;101709.56;2090916;28;20026;-72
2023/09/15 01:13:21;;;;;;;6.25;1.10;;;;;;;14.41;72.47;101713.31;2074586;28;20035;-72
2023/09/15 01:14:23;;;;;;;1.83;1.00;;;;;;;14.41;72.74;101708.75;2082756;28;20025;-72
2023/09/15 01:15:36;;;;;;;5.10;1.38;;;;;;;14.40;72.86;101709.81;2074548;28;20026;-71
2023/09/15 01:16:56;;;;;;;2.63;1.30;;;;;;;14.38;72.63;101712.00;2084605;28;20037;-72
2023/09/15 01:18:32;;;;;;;1.58;1.05;;;;;;;14.38;72.57;101715.50;2087748;28;20034;-72
2023/09/15 01:19:58;;;;;;;2.65;1.30;;;;;;;14.38;72.52;101726.34;2092432;28;20080;-72
2023/09/15 01:21:24;;;;;;;2.20;1.00;;;;;;;14.38;72.61;101723.63;2097453;28;20847;-72
2023/09/15 01:23:12;;;;;;;3.65;1.05;;;;;;;14.37;72.55;101727.44;2086008;28;20041;-72
2023/09/15 01:24:38;;;;;;;2.47;1.10;;;;;;;14.37;72.85;101719.31;2093720;28;20856;-69
2023/09/15 01:25:45;;;;;;;3.05;1.00;;;;;;;14.36;72.48;101725.78;2102952;28;21273;-70
2023/09/15 01:27:03;;;;;;;3.40;1.13;;;;;;;14.35;72.87;101726.09;2099247;28;20091;-70
2023/09/15 01:28:23;;;;;;;1.30;0.80;;;;;;;14.34;72.37;101719.03;2079026;28;20120;-70
2023/09/15 01:29:50;;;;;;;3.10;1.30;;;;;;;14.33;72.44;101723.63;2083778;28;20858;-70
2023/09/15 01:30:53;;;;;;;3.58;1.00;;;;;;;14.33;72.72;101729.03;2089392;28;20147;-70
2023/09/15 01:32:00;;;;;;;2.42;1.20;;;;;;;14.32;72.99;101726.63;2100288;28;20147;-70
2023/09/15 01:33:23;;;;;;;2.65;0.98;;;;;;;14.31;72.65;101725.81;2108268;28;20103;-70
2023/09/15 01:34:25;;;;;;;1.73;1.05;;;;;;;14.30;72.63;101728.78;2100083;28;20032;-70
2023/09/15 01:35:27;;;;;;;1.83;1.10;;;;;;;14.30;73.07;101720.69;2082427;28;20030;-70
2023/09/15 01:36:28;;;;;;;2.00;0.90;;;;;;;14.28;72.76;101726.38;2099506;28;20040;-71
2023/09/15 01:37:32;;;;;;;2.28;1.13;;;;;;;14.28;73.13;101728.25;2115778;28;20878;-71
2023/09/15 01:38:34;;;;;;;4.00;1.23;;;;;;;14.29;72.88;101732.59;2116182;28;20032;-71
2023/09/15 01:39:37;;;;;;;1.63;0.90;;;;;;;14.28;73.09;101730.94;2116120;28;20036;-70
2023/09/15 01:40:39;;;;;;;2.88;1.00;;;;;;;14.26;73.16;101730.44;2099164;28;20860;-70
2023/09/15 01:41:48;;;;;;;5.57;1.10;;;;;;;14.26;73.07;101730.44;2101841;27;20037;-70
2023/09/15 01:43:10;;;;;;;1.00;0.90;;;;;;;14.25;72.87;101739.59;2107218;28;20041;-70
2023/09/15 01:44:16;;;;;;;4.45;1.00;;;;;;;14.25;73.29;101728.78;2104571;28;20770;-70
2023/09/15 01:45:20;;;;;;;1.70;0.98;;;;;;;14.25;72.98;101734.19;2108627;28;20060;-70
2023/09/15 01:46:24;;;;;;;2.20;1.10;;;;;;;14.25;73.19;101734.19;2115424;28;20032;-70
2023/09/15 01:47:27;;;;;;;2.25;1.00;;;;;;;14.23;73.25;101733.69;2099248;28;20862;-70
2023/09/15 01:48:31;;;;;;;2.28;1.13;;;;;;;14.22;73.34;101726.63;2099729;28;20029;-70
2023/09/15 01:49:35;;;;;;;2.42;1.10;;;;;;;14.23;73.38;101731.78;2099570;28;20799;-70
2023/09/15 01:50:37;;;;;;;2.05;0.90;;;;;;;14.23;73.33;101728.28;2099866;28;20130;-70
2023/09/15 01:51:41;;;;;;;2.08;1.20;;;;;;;14.22;73.22;101732.03;2099356;28;20029;-70
2023/09/15 01:52:48;;;;;;;1.63;1.00;;;;;;;14.22;73.06;101737.44;2091081;28;20182;-70
2023/09/15 01:53:52;;;;;;;1.90;1.00;;;;;;;14.20;73.40;101732.34;2092611;28;20120;-69
2023/09/15 01:54:56;;;;;;;1.75;0.95;;;;;;;14.22;73.32;101740.16;2091678;28;20033;-70
2023/09/15 01:55:58;;;;;;;2.75;0.98;;;;;;;14.21;73.21;101733.13;2099064;28;20029;-70
2023/09/15 01:57:00;;;;;;;1.63;0.82;;;;;;;14.21;73.39;101735.84;2082722;28;20033;-70
2023/09/15 01:58:10;;;;;;;1.65;0.90;;;;;;;14.21;73.44;101736.66;2103119;27;20037;-70
2023/09/15 01:59:13;;;;;;;1.35;0.90;;;;;;;14.19;73.26;101738.03;2098886;28;20040;-70
2023/09/15 02:00:17;;;;;;;2.10;1.10;;;;;;;14.20;73.26;101739.66;2091245;28;20152;-70
2023/09/15 02:01:18;;;;;;;1.58;0.98;;;;;;;14.20;73.47;101739.66;2098515;28;20045;-70
2023/09/15 02:02:23;;;;;;;2.95;0.98;;;;;;;14.18;72.98;101742.59;2091416;28;20148;-70
2023/09/15 02:03:34;;;;;;;2.90;1.00;;;;;;;14.19;73.42;101744.25;2085431;28;20030;-70
2023/09/15 02:04:38;;;;;;;4.38;1.02;;;;;;;14.19;73.60;101743.44;2084130;28;20152;-70
2023/09/15 02:05:39;;;;;;;2.85;0.90;;;;;;;14.18;73.71;101742.59;2099935;28;20899;-70
2023/09/15 02:06:42;;;;;;;1.92;0.90;;;;;;;14.18;73.29;101753.41;2098843;28;20024;-70
2023/09/15 02:07:44;;;;;;;2.30;0.90;;;;;;;14.18;73.53;101747.22;2099571;28;20075;-70
2023/09/15 02:08:47;;;;;;;1.98;0.80;;;;;;;14.19;73.40;101748.84;2099088;28;20037;-70
2023/09/15 02:09:49;;;;;;;1.58;0.90;;;;;;;14.19;73.60;101748.84;2083432;28;20108;-70
2023/09/15 02:10:51;;;;;;;4.13;1.00;;;;;;;14.17;73.36;101746.41;2082746;28;20136;-70
2023/09/15 02:11:53;;;;;;;2.10;0.90;;;;;;;14.17;73.50;101743.69;2082510;28;20045;-70
2023/09/15 02:12:55;;;;;;;1.75;0.82;;;;;;;14.18;73.44;101747.22;2091169;28;20060;-72
2023/09/15 02:13:57;;;;;;;2.38;0.90;;;;;;;14.16;73.73;101744.78;2098965;28;20858;-72
2023/09/15 02:14:59;;;;;;;3.40;0.95;;;;;;;14.17;73.79;101748.31;2099238;28;20725;-72
2023/09/15 02:16:01;;;;;;;4.45;0.90;;;;;;;14.17;73.54;101746.41;2107149;28;20037;-72
2023/09/15 02:17:06;;;;;;;2.03;0.88;;;;;;;14.17;73.82;101751.81;2098892;28;20091;-71
2023/09/15 02:18:09;;;;;;;1.67;0.90;;;;;;;14.17;73.78;101745.59;2082493;28;20899;-71
2023/09/15 02:19:11;;;;;;;2.08;0.88;;;;;;;14.15;73.62;101748.56;2074695;28;20034;-71
2023/09/15 02:20:12;;;;;;;1.67;0.88;;;;;;;14.16;73.85;101744.00;2082483;28;20018;-72
2023/09/15 02:21:18;;;;;;;2.72;0.95;;;;;;;14.14;73.60;101745.06;2083415;28;20018;-72
2023/09/15 02:22:20;;;;;;;3.58;0.98;;;;;;;14.12;73.63;101744.53;2091779;28;20149;-72
2023/09/15 02:23:23;;;;;;;1.55;0.90;;;;;;;14.16;73.48;101746.69;2098740;28;20046;-71
2023/09/15 02:24:26;;;;;;;1.30;0.80;;;;;;;14.14;73.82;101747.75;2074602;28;20038;-72
2023/09/15 02:25:27;;;;;;;1.73;0.98;;;;;;;14.14;73.74;101745.06;2082685;28;20053;-72
2023/09/15 02:26:34;;;;;;;4.28;1.50;;;;;;;14.13;73.57;101746.16;2075041;28;20033;-72
2023/09/15 02:27:37;;;;;;;1.70;1.00;;;;;;;14.13;73.81;101746.16;2083184;28;20026;-72
2023/09/15 02:28:39;;;;;;;2.35;0.98;;;;;;;14.13;73.70;101745.34;2090460;28;20022;-72
2023/09/15 02:29:40;;;;;;;2.80;0.80;;;;;;;14.12;73.94;101747.25;2098847;28;20099;-72
2023/09/15 02:30:42;;;;;;;1.50;0.82;;;;;;;14.12;74.06;101739.13;2090455;28;20075;-72
2023/09/15 02:31:45;;;;;;;1.90;1.00;;;;;;;14.12;74.01;101741.81;2099142;28;20025;-72
2023/09/15 02:32:48;;;;;;;1.40;0.82;;;;;;;14.12;73.98;101744.53;2107337;28;20819;-72
2023/09/15 02:33:50;;;;;;;2.15;0.80;;;;;;;14.11;73.77;101745.59;2099010;28;20025;-72
2023/09/15 02:34:53;;;;;;;2.17;0.90;;;;;;;14.11;73.94;101745.59;2090741;28;20803;-72
2023/09/15 02:35:55;;;;;;;4.63;0.90;;;;;;;14.11;73.82;101742.88;2090694;28;20038;-73
2023/09/15 02:36:59;;;;;;;1.23;0.75;;;;;;;14.10;74.04;101746.69;2099101;28;20048;-72
2023/09/15 02:38:03;;;;;;;1.67;0.80;;;;;;;14.10;73.85;101746.69;2099286;28;20147;-72
2023/09/15 02:39:05;;;;;;;3.78;0.85;;;;;;;14.09;73.91;101733.41;2099107;28;20029;-72
2023/09/15 02:40:13;;;;;;;1.63;0.75;;;;;;;14.10;73.79;101737.78;2098765;28;20044;-72
2023/09/15 02:41:38;;;;;;;3.45;0.88;;;;;;;14.08;74.00;101743.44;2091186;28;20044;-72
2023/09/15 02:42:45;;;;;;;3.40;0.90;;;;;;;14.07;73.72;101739.13;2093157;28;20141;-72
2023/09/15 02:43:47;;;;;;;1.80;0.73;;;;;;;14.08;73.82;101743.44;2098961;28;20755;-72
2023/09/15 02:44:50;;;;;;;2.13;0.80;;;;;;;14.06;73.78;101751.03;2090570;28;20021;-72
2023/09/15 02:46:04;;;;;;;2.33;0.90;;;;;;;14.07;73.66;101747.22;2083813;28;20026;-72
2023/09/15 02:47:06;;;;;;;1.58;0.70;;;;;;;14.06;73.86;101750.19;2077125;28;20034;-72
2023/09/15 02:48:09;;;;;;;1.95;0.85;;;;;;;14.05;73.83;101752.09;2074004;28;20204;-72
2023/09/15 02:49:11;;;;;;;2.03;0.93;;;;;;;14.05;73.85;101745.88;2089708;28;20080;-70
2023/09/15 02:50:15;;;;;;;1.42;0.80;;;;;;;14.03;73.98;101751.56;2099141;28;20163;-70
2023/09/15 02:51:18;;;;;;;3.08;0.82;;;;;;;14.04;74.04;101760.50;2099062;28;20080;-70
2023/09/15 02:52:19;;;;;;;2.38;1.00;;;;;;;14.02;73.72;101749.94;2099076;28;20025;-70
2023/09/15 02:53:21;;;;;;;1.73;0.98;;;;;;;14.03;74.10;101759.69;2090406;28;20041;-70
2023/09/15 02:54:28;;;;;;;1.88;1.00;;;;;;;14.02;73.74;101758.03;2082390;28;20856;-70
2023/09/15 02:55:31;;;;;;;4.60;0.90;;;;;;;14.01;74.10;101748.31;2083619;28;20026;-70
2023/09/15 02:56:40;;;;;;;2.00;1.00;;;;;;;14.00;73.73;101752.13;2090576;28;20045;-70
2023/09/15 02:57:46;;;;;;;1.75;0.98;;;;;;;14.00;73.81;101754.81;2100052;28;20049;-70
2023/09/15 02:58:51;;;;;;;1.70;0.90;;;;;;;13.99;74.07;101752.38;2098731;28;20045;-70
2023/09/15 02:59:53;;;;;;;3.30;1.02;;;;;;;13.98;73.87;101758.88;2082292;28;20110;-70
2023/09/15 03:00:55;;;;;;;1.67;1.10;;;;;;;13.97;73.56;101749.97;2090471;28;20752;-69
2023/09/15 03:01:58;;;;;;;1.70;0.90;;;;;;;13.96;73.83;101756.44;2089819;28;20041;-70
2023/09/15 03:03:03;;;;;;;1.92;0.90;;;;;;;13.94;73.96;101758.59;2098983;28;20044;-70
2023/09/15 03:04:06;;;;;;;1.88;1.00;;;;;;;13.93;73.72;101762.38;2090396;28;20037;-70
2023/09/15 03:05:09;;;;;;;1.77;0.90;;;;;;;13.92;73.85;101766.16;2091481;28;20038;-70
2023/09/15 03:06:11;;;;;;;1.55;0.80;;;;;;;13.90;73.54;101757.50;2098905;28;20045;-70
2023/09/15 03:07:15;;;;;;;3.10;0.95;;;;;;;13.90;73.87;101762.91;2091020;28;20041;-70
2023/09/15 03:08:20;;;;;;;2.42;1.00;;;;;;;13.88;73.60;101754.28;2091665;28;20025;-72
2023/09/15 03:09:22;;;;;;;3.95;0.90;;;;;;;13.85;73.92;101754.81;2086935;28;20034;-72
2023/09/15 03:10:26;;;;;;;1.73;0.85;;;;;;;13.85;73.67;101765.63;2073725;28;20901;-72
2023/09/15 03:11:30;;;;;;;2.10;0.98;;;;;;;13.85;73.88;101762.94;2091598;28;20026;-72
2023/09/15 03:12:37;;;;;;;2.35;0.85;;;;;;;13.83;73.98;101762.38;2091148;28;20032;-72
2023/09/15 03:13:40;;;;;;;1.70;0.90;;;;;;;13.83;73.79;101756.97;2090610;28;20041;-72
2023/09/15 03:14:42;;;;;;;1.50;0.90;;;;;;;13.81;73.96;101759.16;2090386;28;20891;-72
2023/09/15 03:15:44;;;;;;;2.97;1.70;;;;;;;13.81;73.74;101759.16;2098569;28;20904;-72
2023/09/15 03:16:47;;;;;;;4.40;1.42;;;;;;;13.80;73.81;101762.94;2090252;28;20065;-71
2023/09/15 03:17:50;;;;;;;4.85;1.17;;;;;;;13.80;73.98;101760.22;2082365;28;20971;-72
2023/09/15 03:18:51;;;;;;;4.22;1.20;;;;;;;13.80;73.59;101754.81;2074231;28;20043;-72
2023/09/15 03:19:58;;;;;;;2.08;1.23;;;;;;;13.80;74.04;101763.72;2066104;28;20843;-72
2023/09/15 03:21:02;;;;;;;3.15;1.30;;;;;;;13.79;73.97;101758.59;2092129;28;20836;-72
2023/09/15 03:22:05;;;;;;;5.35;1.45;;;;;;;13.78;73.85;101767.81;2090403;28;20904;-72
2023/09/15 03:23:09;;;;;;;5.13;1.17;;;;;;;13.77;73.91;101766.97;2098892;28;20154;-72
2023/09/15 03:24:13;;;;;;;2.25;1.20;;;;;;;13.78;73.94;101770.50;2097978;28;20119;-72
2023/09/15 03:25:15;;;;;;;1.65;1.02;;;;;;;13.77;73.98;101769.69;2091304;28;20087;-72
2023/09/15 03:26:17;;;;;;;2.75;1.15;;;;;;;13.77;74.14;101768.88;2090044;28;20215;-72
2023/09/15 03:27:23;;;;;;;1.77;1.17;;;;;;;13.78;74.10;101775.91;2091497;28;20038;-72
2023/09/15 03:28:26;;;;;;;2.30;0.80;;;;;;;13.76;74.11;101776.19;2098711;28;20110;-72
2023/09/15 03:29:28;;;;;;;3.95;1.08;;;;;;;13.76;73.89;101767.25;2099403;28;20115;-72
2023/09/15 03:30:32;;;;;;;1.73;0.90;;;;;;;13.77;74.02;101771.56;2090772;28;20037;-72
2023/09/15 03:31:38;;;;;;;2.00;0.93;;;;;;;13.74;74.31;101770.22;2092142;28;20071;-72
2023/09/15 03:32:42;;;;;;;2.15;1.02;;;;;;;13.75;74.36;101773.75;2090399;28;20032;-72
2023/09/15 03:33:45;;;;;;;2.95;1.00;;;;;;;13.76;74.06;101775.38;2082097;28;20150;-72
2023/09/15 03:35:05;;;;;;;3.33;1.00;;;;;;;13.75;74.22;101771.88;2099384;28;20024;-72
2023/09/15 03:36:10;;;;;;;3.42;1.08;;;;;;;13.75;74.17;101777.28;2101081;28;20090;-72
2023/09/15 03:37:12;;;;;;;2.05;1.20;;;;;;;13.74;74.09;101777.53;2098801;28;20027;-72
2023/09/15 03:38:13;;;;;;;2.58;1.02;;;;;;;13.74;74.21;101774.81;2090163;28;20060;-72
2023/09/15 03:39:15;;;;;;;3.42;1.10;;;;;;;13.74;74.24;101780.22;2090141;28;20042;-72
2023/09/15 03:40:18;;;;;;;3.90;1.90;;;;;;;13.73;74.33;101776.72;2107114;28;20735;-72
2023/09/15 03:41:24;;;;;;;4.78;1.17;;;;;;;13.73;74.26;101773.22;2098280;28;20036;-72
2023/09/15 03:42:28;;;;;;;5.00;1.15;;;;;;;13.74;74.53;101777.53;2098797;28;20088;-72
2023/09/15 03:43:32;;;;;;;4.50;1.20;;;;;;;13.74;74.40;101780.22;2090513;28;20026;-72
2023/09/15 03:44:34;;;;;;;4.65;1.10;;;;;;;13.74;74.49;101780.22;2082650;28;20997;-72
2023/09/15 03:45:36;;;;;;;1.58;1.00;;;;;;;13.73;74.35;101778.63;2081976;28;20955;-72
2023/09/15 03:46:41;;;;;;;3.28;0.90;;;;;;;13.74;74.47;101780.22;2081952;28;20108;-72
2023/09/15 03:47:43;;;;;;;2.20;1.10;;;;;;;13.73;74.63;101784.03;2098749;28;20021;-72
2023/09/15 03:48:45;;;;;;;3.53;1.00;;;;;;;13.75;74.49;101784.56;2106863;28;20843;-72
2023/09/15 03:49:47;;;;;;;3.20;1.17;;;;;;;13.75;74.71;101781.88;2098037;28;20855;-72
2023/09/15 03:50:50;;;;;;;2.05;0.82;;;;;;;13.75;74.58;101781.88;2082078;28;20133;-72
2023/09/15 03:51:52;;;;;;;2.40;1.00;;;;;;;13.75;74.57;101787.28;2082212;28;20042;-71
2023/09/15 03:52:54;;;;;;;1.55;0.80;;;;;;;13.74;74.74;101789.13;2098237;28;20029;-72
2023/09/15 03:53:56;;;;;;;4.90;0.80;;;;;;;13.74;74.67;101786.44;2098146;28;20103;-72
2023/09/15 03:55:00;;;;;;;2.67;1.00;;;;;;;13.75;74.83;101795.38;2098517;28;20021;-71
2023/09/15 03:56:04;;;;;;;2.75;1.10;;;;;;;13.75;74.89;101790.78;2098906;28;20047;-72
2023/09/15 03:57:12;;;;;;;1.60;0.90;;;;;;;13.75;74.82;101798.88;2098525;28;20065;-71
2023/09/15 03:58:17;;;;;;;2.13;1.05;;;;;;;13.77;75.11;101795.91;2106602;28;20036;-72
2023/09/15 03:59:20;;;;;;;1.45;0.70;;;;;;;13.76;74.94;101788.88;2099078;28;20830;-71
2023/09/15 04:00:23;;;;;;;1.30;0.77;;;;;;;13.77;75.33;101795.91;2090354;28;20110;-72
2023/09/15 04:01:28;;;;;;;1.75;0.85;;;;;;;13.77;75.32;101798.59;2089725;28;20153;-72
2023/09/15 04:02:32;;;;;;;5.75;1.10;;;;;;;13.77;75.22;101798.59;2098938;28;20044;-71
2023/09/15 04:03:35;;;;;;;1.70;0.95;;;;;;;13.76;75.22;101794.28;2100176;28;20024;-71
2023/09/15 04:04:39;;;;;;;2.28;1.10;;;;;;;13.77;75.08;101802.13;2106302;28;20027;-71
2023/09/15 04:05:39;;;;;;;2.28;1.00;;;;;;;13.76;75.20;101792.41;2106545;28;20028;-71
2023/09/15 04:06:41;;;;;;;3.83;1.00;;;;;;;13.78;74.99;101802.94;2089525;28;20041;-72
2023/09/15 04:07:43;;;;;;;2.03;1.00;;;;;;;13.78;75.16;101802.94;2098827;28;20910;-72
2023/09/15 04:09:24;;;;;;;1.92;0.95;;;;;;;13.78;75.37;101801.06;2089950;28;20922;-71
2023/09/15 04:10:26;;;;;;;4.00;0.90;;;;;;;13.79;75.51;101799.97;2084222;28;20034;-72
2023/09/15 04:11:28;;;;;;;5.18;1.00;;;;;;;13.79;75.09;101802.66;2081615;28;20034;-71
2023/09/15 04:13:12;;;;;;;2.15;0.90;;;;;;;13.80;75.45;101803.47;2086984;28;20041;-72
2023/09/15 04:14:14;;;;;;;2.72;0.93;;;;;;;13.80;75.38;101804.28;2096415;28;20048;-71
2023/09/15 04:15:15;;;;;;;2.00;1.00;;;;;;;13.81;75.41;101799.72;2098054;28;20035;-72
2023/09/15 04:16:20;;;;;;;2.45;1.00;;;;;;;13.81;75.31;101807.81;2097804;28;20068;-72
2023/09/15 04:17:25;;;;;;;2.42;0.80;;;;;;;13.81;75.16;101807.81;2068350;28;20039;-72
2023/09/15 04:18:45;;;;;;;2.88;0.90;;;;;;;13.82;75.15;101812.13;2074260;28;20046;-72
2023/09/15 04:19:54;;;;;;;2.40;0.80;;;;;;;13.81;75.48;101808.63;2086659;28;20757;-72
2023/09/15 04:20:59;;;;;;;1.17;0.80;;;;;;;13.82;75.14;101820.25;2076043;28;20867;-72
2023/09/15 04:22:01;;;;;;;1.40;0.95;;;;;;;13.82;75.42;101806.72;2065847;28;20770;-72
2023/09/15 04:23:04;;;;;;;1.25;0.80;;;;;;;13.82;75.43;101812.13;2089640;28;20041;-72
2023/09/15 04:24:10;;;;;;;3.13;1.45;;;;;;;13.83;75.48;101816.44;2081811;28;20112;-73
2023/09/15 04:25:12;;;;;;;4.00;1.08;;;;;;;13.82;75.30;101809.44;2074043;28;20022;-72
2023/09/15 04:26:20;;;;;;;2.00;1.08;;;;;;;13.83;75.32;101811.03;2074102;28;20058;-72
2023/09/15 04:27:22;;;;;;;1.98;0.98;;;;;;;13.84;75.77;101809.97;2078982;28;20100;-72
2023/09/15 04:28:25;;;;;;;1.80;1.08;;;;;;;13.84;75.54;101810.78;2092063;28;20037;-72
2023/09/15 04:29:28;;;;;;;2.53;1.00;;;;;;;13.83;75.51;101811.84;2095710;28;20028;-72
2023/09/15 04:30:33;;;;;;;2.95;0.80;;;;;;;13.84;75.76;101815.38;2091405;28;20143;-72
2023/09/15 04:31:38;;;;;;;1.70;1.00;;;;;;;13.86;75.86;101813.22;2095843;28;20254;-72
2023/09/15 04:32:43;;;;;;;3.20;0.90;;;;;;;13.84;75.50;101813.50;2096721;28;20052;-71
2023/09/15 04:33:48;;;;;;;1.95;1.00;;;;;;;13.86;75.52;101826.72;2098557;28;20029;-74
2023/09/15 04:34:55;;;;;;;2.50;0.70;;;;;;;13.86;75.73;101818.63;2103847;28;20044;-74
2023/09/15 04:35:57;;;;;;;1.38;0.75;;;;;;;13.85;75.64;101825.13;2101614;28;20045;-72
2023/09/15 04:37:00;;;;;;;3.50;1.05;;;;;;;13.86;75.21;101824.03;2091307;28;20946;-73
2023/09/15 04:38:07;;;;;;;3.45;2.22;;;;;;;13.85;75.34;101825.94;2080333;28;20042;-72
2023/09/15 04:39:13;;;;;;;6.10;1.20;;;;;;;13.85;75.53;101828.63;2099129;27;20021;-72
2023/09/15 04:40:17;;;;;;;3.35;0.93;;;;;;;13.82;75.35;101821.06;2110235;28;20158;-72
2023/09/15 04:41:19;;;;;;;3.15;0.93;;;;;;;13.85;75.51;101825.13;2098721;28;20144;-72
2023/09/15 04:42:41;;;;;;;1.88;1.00;;;;;;;13.84;75.60;101827.00;2113305;28;20075;-71
2023/09/15 04:43:44;;;;;;;1.05;0.70;;;;;;;13.85;75.42;101835.94;2112062;28;20040;-71
2023/09/15 04:44:48;;;;;;;1.55;0.90;;;;;;;13.84;75.55;101832.41;2097915;28;20033;-71
2023/09/15 04:45:54;;;;;;;1.92;0.85;;;;;;;13.84;75.68;101835.13;2089174;28;20022;-72
2023/09/15 04:47:00;;;;;;;1.95;0.77;;;;;;;13.83;75.49;101829.97;2083006;28;20856;-72
2023/09/15 04:48:12;;;;;;;2.30;1.02;;;;;;;13.85;75.35;101846.75;2090676;28;20028;-72
2023/09/15 04:49:16;;;;;;;1.65;0.75;;;;;;;13.86;75.39;101845.66;2101268;28;20030;-73
2023/09/15 04:50:17;;;;;;;1.27;0.82;;;;;;;13.84;75.31;101842.41;2106150;28;20031;-72
2023/09/15 04:51:26;;;;;;;2.28;0.80;;;;;;;13.86;75.49;101849.16;2113904;28;20063;-71
2023/09/15 04:52:28;;;;;;;2.08;0.88;;;;;;;13.85;75.47;101842.16;2098129;28;21295;-72
2023/09/15 04:53:31;;;;;;;3.45;0.95;;;;;;;13.86;75.62;101843.75;2098068;28;20140;-73
2023/09/15 04:54:35;;;;;;;1.63;0.80;;;;;;;13.86;75.48;101848.34;2105642;28;20058;-71
2023/09/15 04:55:40;;;;;;;3.13;1.23;;;;;;;13.86;75.34;101838.34;2103969;28;20028;-70
2023/09/15 04:56:47;;;;;;;1.92;1.25;;;;;;;13.87;75.54;101844.56;2095594;28;22236;-71
2023/09/15 04:57:49;;;;;;;3.63;1.30;;;;;;;13.87;75.66;101839.16;2087862;28;20104;-72
2023/09/15 04:58:52;;;;;;;5.45;1.08;;;;;;;13.88;75.47;101840.81;2089231;28;20242;-71
2023/09/15 05:00:04;;;;;;;2.65;1.10;;;;;;;13.88;75.51;101840.81;2113462;28;20030;-71
2023/09/15 05:01:11;;;;;;;4.85;1.45;;;;;;;13.88;75.55;101840.81;2099319;28;20768;-70
2023/09/15 05:02:16;;;;;;;2.85;1.42;;;;;;;13.89;75.58;101848.63;2077096;28;20151;-71
2023/09/15 05:03:23;;;;;;;2.58;1.35;;;;;;;13.90;75.50;101847.56;2076784;28;20026;-71
2023/09/15 05:04:26;;;;;;;1.40;1.00;;;;;;;13.93;75.80;101848.91;2091425;28;20032;-72
2023/09/15 05:05:32;;;;;;;3.17;1.30;;;;;;;13.94;75.52;101855.94;2093919;28;20138;-71